Time;durP1;ratioP1;P1;durP2;ratioP2;P2;SDS_P1;SDS_P2;PMS_P1;PMS_P2;Temp;Humidity;BMP_temperature;BMP_pressure;BME280_temperature;BME280_humidity;BME280_pressure;Samples;Min_cycle;Max_cycle;Signal;HPM_P1;HPM_P2
2022/02/04 00:24:28;;;;;;;0.20;0.00;;;9.30;99.90;;;;;;20741767;28;20231;-69
2022/02/04 05:27:56;;;;;;;2.77;2.63;;;7.90;99.90;;;;;;25844089;23;20612;-72
2022/02/04 05:38:03;;;;;;;0.20;0.00;;;7.90;99.90;;;;;;25843448;23;20215;-73
2022/02/04 05:48:07;;;;;;;0.20;0.00;;;7.90;99.90;;;;;;25841562;23;20259;-71
2022/02/04 05:58:28;;;;;;;0.20;0.00;;;7.80;99.90;;;;;;25840792;23;20678;-71
2022/02/04 06:08:49;;;;;;;0.20;0.00;;;7.90;99.90;;;;;;25839186;23;20673;-71
2022/02/04 06:29:16;;;;;;;0.20;0.10;;;8.00;99.90;;;;;;25837398;23;20192;-72
2022/02/04 06:39:21;;;;;;;1.60;1.50;;;8.20;99.90;;;;;;25835269;23;20264;-69
2022/02/04 06:49:25;;;;;;;0.20;0.07;;;8.20;99.90;;;;;;25837368;23;20633;-70
2022/02/04 06:59:30;;;;;;;0.20;0.00;;;8.20;99.90;;;;;;25832142;23;20192;-71
2022/02/04 07:09:44;;;;;;;0.20;0.00;;;8.20;99.90;;;;;;25837636;23;20637;-71
2022/02/04 07:19:50;;;;;;;0.20;0.10;;;8.20;99.90;;;;;;25833037;23;20175;-71
2022/02/04 07:29:55;;;;;;;0.20;0.00;;;8.10;99.90;;;;;;25833742;23;20460;-70
2022/02/04 07:50:21;;;;;;;0.20;0.03;;;8.70;99.90;;;;;;25830118;23;20184;-71
2022/02/04 08:00:27;;;;;;;0.20;0.10;;;9.30;99.90;;;;;;25805164;23;20237;-70
2022/02/04 08:10:38;;;;;;;0.20;0.00;;;9.60;99.90;;;;;;25829143;23;20212;-72
2022/02/04 08:21:17;;;;;;;0.20;0.10;;;10.20;99.90;;;;;;25830323;23;20530;-71
2022/02/04 08:31:39;;;;;;;0.20;0.10;;;11.00;99.90;;;;;;25830914;23;20290;-70
2022/02/04 08:52:18;;;;;;;0.20;0.10;;;12.30;99.90;;;;;;25832422;23;20197;-71
2022/02/04 09:02:34;;;;;;;0.20;0.10;;;13.00;99.90;;;;;;25840220;23;20256;-71
2022/02/04 09:23:13;;;;;;;0.20;0.10;;;13.80;99.90;;;;;;25728100;23;20587;-77
2022/02/04 09:33:17;;;;;;;0.20;0.00;;;14.00;99.90;;;;;;25843024;23;20267;-76
2022/02/04 09:43:22;;;;;;;0.20;0.10;;;14.40;99.90;;;;;;25839590;23;20213;-74
2022/02/04 10:14:50;;;;;;;0.20;0.10;;;15.40;99.90;;;;;;25809562;23;20231;-78
2022/02/04 10:24:58;;;;;;;0.20;0.10;;;15.30;99.90;;;;;;25416444;23;61726;-74
2022/02/04 10:35:03;;;;;;;0.20;0.10;;;14.90;99.90;;;;;;25586296;23;20272;-68
2022/02/04 10:56:04;;;;;;;0.57;0.47;;;15.10;99.90;;;;;;25582284;23;20284;-69
2022/02/04 11:06:20;;;;;;;0.20;0.10;;;15.10;99.90;;;;;;25584297;23;20249;-67
2022/02/04 11:48:05;;;;;;;0.20;0.10;;;16.20;99.90;;;;;;25581171;23;21047;-68
2022/02/04 11:58:09;;;;;;;0.20;0.10;;;17.70;99.90;;;;;;25577852;23;20724;-70
2022/02/04 12:08:21;;;;;;;0.20;0.13;;;17.50;99.90;;;;;;25581137;23;20166;-71
2022/02/04 12:19:03;;;;;;;0.20;0.10;;;17.10;99.90;;;;;;25580484;23;20194;-71
2022/02/04 12:29:27;;;;;;;0.20;0.00;;;16.70;99.90;;;;;;25547756;23;20264;-71
2022/02/04 12:39:33;;;;;;;0.20;0.00;;;18.00;99.90;;;;;;25553738;23;20268;-73
2022/02/04 12:49:48;;;;;;;0.50;0.30;;;17.70;99.90;;;;;;25578880;23;20392;-72
2022/02/04 12:59:56;;;;;;;0.20;0.10;;;16.60;99.90;;;;;;25461120;23;20203;-72
2022/02/04 13:10:02;;;;;;;0.20;0.00;;;18.40;99.90;;;;;;25441625;23;20613;-72
2022/02/04 13:20:07;;;;;;;0.20;0.00;;;17.40;99.90;;;;;;25455341;23;20478;-67
2022/02/04 13:30:25;;;;;;;0.20;0.10;;;17.10;99.90;;;;;;25451513;23;20218;-67
2022/02/04 13:40:59;;;;;;;0.20;0.10;;;16.60;99.90;;;;;;25448681;23;20267;-69
2022/02/04 13:51:17;;;;;;;0.20;0.10;;;16.10;99.90;;;;;;25457786;23;20637;-69
2022/02/04 14:01:33;;;;;;;0.20;0.00;;;15.80;99.90;;;;;;25431570;23;20198;-68
2022/02/04 14:11:40;;;;;;;0.20;0.10;;;15.80;99.90;;;;;;25462527;23;20274;-68
2022/02/04 14:21:46;;;;;;;0.20;0.10;;;15.60;99.90;;;;;;25459312;23;20775;-69
2022/02/04 14:31:56;;;;;;;0.20;0.10;;;15.90;99.90;;;;;;25432852;23;20715;-68
2022/02/04 14:52:31;;;;;;;0.20;0.10;;;16.30;99.90;;;;;;25459916;23;20290;-69
2022/02/04 15:02:43;;;;;;;0.20;0.10;;;15.80;99.90;;;;;;25460902;23;20209;-68
2022/02/04 15:12:49;;;;;;;0.20;0.10;;;15.60;99.90;;;;;;25459126;23;20214;-69
2022/02/04 15:22:52;;;;;;;0.20;0.00;;;15.60;99.90;;;;;;25454151;23;20489;-70
2022/02/04 15:32:58;;;;;;;0.20;0.10;;;15.40;99.90;;;;;;25455624;23;20274;-69
2022/02/04 15:43:04;;;;;;;0.23;0.17;;;15.50;99.90;;;;;;25453751;23;20445;-68
2022/02/04 15:53:30;;;;;;;1.20;1.20;;;15.20;99.90;;;;;;25454568;23;20206;-70
2022/02/04 16:03:57;;;;;;;0.20;0.00;;;15.00;99.90;;;;;;25457973;23;20171;-70
2022/02/04 16:14:15;;;;;;;0.20;0.10;;;14.80;99.90;;;;;;25457857;23;20191;-71
2022/02/04 16:34:43;;;;;;;0.20;0.00;;;14.60;99.90;;;;;;25453743;23;20644;-71
2022/02/04 16:44:47;;;;;;;0.20;0.00;;;14.50;99.90;;;;;;25457777;23;20258;-70
2022/02/04 16:54:53;;;;;;;0.20;0.00;;;14.30;99.90;;;;;;25454789;23;20206;-69
2022/02/04 17:04:57;;;;;;;0.20;0.03;;;14.10;99.90;;;;;;25454098;23;20497;-68
2022/02/04 17:15:03;;;;;;;0.20;0.00;;;13.80;99.90;;;;;;25456476;23;20593;-68
2022/02/04 17:25:10;;;;;;;0.20;0.10;;;13.60;99.90;;;;;;25465499;23;20537;-68
2022/02/04 17:35:17;;;;;;;0.20;0.10;;;13.20;99.90;;;;;;25462534;23;20194;-69
2022/02/04 17:45:22;;;;;;;0.20;0.10;;;12.70;99.90;;;;;;25462366;23;20214;-68
2022/02/04 17:55:30;;;;;;;0.20;0.10;;;12.40;99.90;;;;;;25461384;23;20293;-71
2022/02/04 18:05:44;;;;;;;0.20;0.10;;;12.30;99.90;;;;;;25462980;23;20187;-72
2022/02/04 18:15:49;;;;;;;0.20;0.10;;;12.40;99.90;;;;;;25462120;23;20282;-79
2022/02/04 18:25:53;;;;;;;0.20;0.10;;;12.50;99.90;;;;;;25461103;23;20171;-81
2022/02/04 18:36:01;;;;;;;0.20;0.10;;;12.40;99.90;;;;;;25463381;23;20255;-77
2022/02/04 18:46:12;;;;;;;0.20;0.10;;;12.00;99.90;;;;;;25462096;23;20941;-68
2022/02/04 18:56:30;;;;;;;0.20;0.10;;;11.90;99.90;;;;;;25460559;23;20290;-68
2022/02/04 19:06:38;;;;;;;0.20;0.10;;;11.60;99.90;;;;;;25459146;23;20171;-68
2022/02/04 19:16:53;;;;;;;0.20;0.10;;;11.50;99.90;;;;;;25456338;23;20199;-67
2022/02/04 19:26:57;;;;;;;0.20;0.00;;;11.30;99.90;;;;;;25457712;23;20253;-68
2022/02/04 19:37:02;;;;;;;0.60;0.47;;;11.30;99.90;;;;;;25446963;23;20200;-70
2022/02/04 19:47:10;;;;;;;0.20;0.10;;;11.20;99.90;;;;;;25452695;23;20273;-69
2022/02/04 20:28:46;;;;;;;10.57;6.97;;;11.50;99.90;;;;;;25455569;23;20322;-71
2022/02/04 20:38:52;;;;;;;0.20;0.10;;;11.60;99.90;;;;;;25457085;23;20313;-68
2022/02/04 20:49:04;;;;;;;0.20;0.10;;;11.50;99.90;;;;;;25458441;23;20171;-67
2022/02/04 20:59:09;;;;;;;0.20;0.10;;;11.60;99.90;;;;;;25463014;23;20205;-68
2022/02/04 21:19:35;;;;;;;0.20;0.20;;;11.80;99.90;;;;;;25469358;23;20190;-68
2022/02/04 21:29:41;;;;;;;0.20;0.10;;;12.00;99.90;;;;;;25470200;23;20254;-69
2022/02/04 21:39:46;;;;;;;0.20;0.00;;;12.00;99.90;;;;;;25466722;23;20285;-69
2022/02/04 21:49:50;;;;;;;0.20;0.20;;;12.00;99.90;;;;;;25467181;23;20167;-67
2022/02/04 21:59:56;;;;;;;0.20;0.10;;;12.00;99.90;;;;;;25466750;23;20207;-67
2022/02/04 22:31:12;;;;;;;0.20;0.10;;;11.90;99.90;;;;;;25394330;23;20197;-68
2022/02/04 22:41:59;;;;;;;0.20;0.10;;;11.80;99.90;;;;;;25465023;23;20255;-67
2022/02/04 22:52:34;;;;;;;0.20;0.10;;;11.60;99.90;;;;;;25465571;23;20206;-68
2022/02/04 23:03:00;;;;;;;0.20;0.10;;;11.60;99.90;;;;;;25462830;23;20175;-68
2022/02/04 23:13:23;;;;;;;0.20;0.10;;;11.50;99.90;;;;;;25457849;23;20182;-67
2022/02/04 23:23:53;;;;;;;0.20;0.10;;;11.50;99.90;;;;;;25457528;23;20599;-75
2022/02/04 23:54:49;;;;;;;0.20;0.00;;;11.60;99.90;;;;;;25453770;23;20318;-74
